Time;durP1;ratioP1;P1;durP2;ratioP2;P2;SDS_P1;SDS_P2;PMS_P1;PMS_P2;Temp;Humidity;BMP_temperature;BMP_pressure;BME280_temperature;BME280_humidity;BME280_pressure;Samples;Min_cycle;Max_cycle;Signal;HPM_P1;HPM_P2
2021/11/07 00:06:59;;;;;;;;;20.00;18.33;;;;;;;;4930265;28;45322;-83
2021/11/07 00:09:32;;;;;;;;;17.33;15.00;;;;;;;;4929353;28;45548;-83
2021/11/07 00:12:00;;;;;;;;;19.33;15.67;;;;;;;;4930735;28;45554;-83
2021/11/07 00:14:29;;;;;;;;;17.33;15.67;;;;;;;;4930092;28;45391;-83
2021/11/07 00:16:55;;;;;;;;;20.00;18.00;;;;;;;;4928393;28;45333;-83
2021/11/07 00:19:31;;;;;;;;;16.67;15.00;;;;;;;;4929332;28;44849;-83
2021/11/07 00:22:22;;;;;;;;;19.67;18.33;;;;;;;;4931917;28;45407;-84
2021/11/07 00:25:14;;;;;;;;;19.00;17.33;;;;;;;;4929876;28;45498;-83
2021/11/07 00:27:56;;;;;;;;;16.67;14.00;;;;;;;;4929364;28;45545;-83
2021/11/07 00:38:22;;;;;;;;;17.00;15.00;;;;;;;;4910731;29;45780;-82
2021/11/07 00:41:02;;;;;;;;;15.33;14.00;;;;;;;;4895738;29;45388;-83
2021/11/07 00:43:41;;;;;;;;;14.67;12.33;;;;;;;;4896187;29;45636;-82
2021/11/07 00:46:33;;;;;;;;;15.67;13.00;;;;;;;;4913150;28;45357;-83
2021/11/07 00:49:06;;;;;;;;;14.67;14.00;;;;;;;;4910968;28;45435;-83
2021/11/07 00:56:52;;;;;;;;;9.00;9.00;;;;;;;;4913059;28;45104;-83
2021/11/07 00:59:29;;;;;;;;;11.33;9.33;;;;;;;;4895376;28;45429;-83
2021/11/07 01:02:04;;;;;;;;;13.33;11.00;;;;;;;;4895415;28;44869;-83
2021/11/07 01:04:46;;;;;;;;;10.00;9.33;;;;;;;;4895329;29;45970;-83
2021/11/07 01:07:12;;;;;;;;;13.00;11.00;;;;;;;;4893172;28;46748;-84
2021/11/07 01:09:38;;;;;;;;;13.00;11.00;;;;;;;;4911050;28;45528;-83
2021/11/07 01:15:07;;;;;;;;;13.00;11.67;;;;;;;;4911096;28;45417;-83
2021/11/07 01:17:42;;;;;;;;;16.67;14.00;;;;;;;;4894268;29;47755;-83
2021/11/07 01:20:09;;;;;;;;;16.00;13.33;;;;;;;;4893571;29;45508;-83
2021/11/07 01:25:24;;;;;;;;;15.00;12.33;;;;;;;;4889617;29;45810;-83
2021/11/07 01:28:03;;;;;;;;;13.00;12.33;;;;;;;;4873885;29;46957;-84
2021/11/07 01:33:35;;;;;;;;;14.00;13.00;;;;;;;;4872143;29;45705;-84
2021/11/07 01:38:50;;;;;;;;;11.00;11.00;;;;;;;;4871475;29;45584;-84
2021/11/07 01:41:21;;;;;;;;;12.67;11.33;;;;;;;;4855533;29;45428;-84
2021/11/07 01:46:56;;;;;;;;;11.00;10.33;;;;;;;;4870922;29;45457;-84
2021/11/07 01:49:33;;;;;;;;;11.00;11.00;;;;;;;;4870276;29;47302;-84
2021/11/07 01:52:03;;;;;;;;;11.00;9.33;;;;;;;;4870668;29;45527;-84
2021/11/07 01:54:36;;;;;;;;;15.67;12.33;;;;;;;;4854953;29;45439;-84
2021/11/07 01:57:03;;;;;;;;;11.67;10.00;;;;;;;;4871710;29;44909;-83
2021/11/07 02:02:34;;;;;;;;;10.00;10.00;;;;;;;;4871309;29;45411;-84
2021/11/07 02:05:00;;;;;;;;;9.33;9.33;;;;;;;;4870378;29;45462;-84
2021/11/07 02:07:25;;;;;;;;;10.67;9.33;;;;;;;;4870905;29;45556;-84
2021/11/07 02:09:53;;;;;;;;;14.00;10.00;;;;;;;;4880697;28;45129;-84
2021/11/07 02:12:19;;;;;;;;;14.67;12.00;;;;;;;;4892785;29;45451;-83
2021/11/07 02:14:49;;;;;;;;;11.33;10.67;;;;;;;;4894538;28;45554;-83
2021/11/07 02:17:18;;;;;;;;;10.67;10.00;;;;;;;;4895442;29;45577;-83
2021/11/07 02:19:47;;;;;;;;;11.00;11.00;;;;;;;;4894295;28;47040;-83
2021/11/07 02:31:21;;;;;;;;;10.00;10.00;;;;;;;;4911877;28;45817;-83
2021/11/07 02:33:47;;;;;;;;;10.00;9.00;;;;;;;;4911166;28;45670;-83
2021/11/07 02:36:15;;;;;;;;;10.33;10.33;;;;;;;;4881295;29;46037;-82
2021/11/07 02:38:40;;;;;;;;;11.00;11.00;;;;;;;;4874335;29;45522;-82
2021/11/07 02:41:06;;;;;;;;;11.00;11.00;;;;;;;;4893567;29;45987;-83
2021/11/07 02:44:01;;;;;;;;;12.00;10.00;;;;;;;;4892634;29;45418;-85
2021/11/07 02:46:27;;;;;;;;;14.67;10.67;;;;;;;;4842375;29;45409;-83
2021/11/07 02:48:59;;;;;;;;;17.00;11.33;;;;;;;;4910228;28;45411;-83
2021/11/07 02:51:50;;;;;;;;;10.67;8.67;;;;;;;;4893889;29;47025;-83
2021/11/07 02:54:16;;;;;;;;;13.33;9.33;;;;;;;;4892149;29;45331;-82
2021/11/07 02:56:41;;;;;;;;;13.33;10.33;;;;;;;;4892735;29;45423;-83
2021/11/07 02:59:08;;;;;;;;;12.33;10.67;;;;;;;;4876719;29;45422;-82
2021/11/07 03:01:40;;;;;;;;;8.33;8.33;;;;;;;;4892840;29;46200;-83
2021/11/07 03:04:08;;;;;;;;;11.50;10.50;;;;;;;;4878206;29;45443;-83
2021/11/07 03:06:34;;;;;;;;;13.00;10.67;;;;;;;;4879706;29;44874;-83
2021/11/07 03:09:01;;;;;;;;;13.33;11.67;;;;;;;;4878007;29;45494;-83
2021/11/07 03:11:51;;;;;;;;;10.67;10.33;;;;;;;;4879101;29;45365;-83
2021/11/07 03:14:21;;;;;;;;;9.67;9.67;;;;;;;;4878406;29;45500;-83
2021/11/07 03:16:50;;;;;;;;;12.33;12.00;;;;;;;;4879274;29;45472;-83
2021/11/07 03:19:24;;;;;;;;;12.00;11.00;;;;;;;;4879351;29;45393;-83
2021/11/07 03:21:55;;;;;;;;;9.33;9.33;;;;;;;;4876919;29;47804;-83
2021/11/07 03:24:26;;;;;;;;;13.00;13.00;;;;;;;;4876957;29;45494;-83
2021/11/07 03:26:52;;;;;;;;;11.00;9.00;;;;;;;;4877292;29;45578;-83
2021/11/07 03:32:22;;;;;;;;;11.00;11.00;;;;;;;;4856107;29;45939;-83
2021/11/07 03:34:54;;;;;;;;;12.67;12.67;;;;;;;;4840238;29;45560;-83
2021/11/07 03:37:35;;;;;;;;;14.67;12.33;;;;;;;;4858346;29;45520;-83
2021/11/07 03:40:23;;;;;;;;;13.33;12.00;;;;;;;;4874095;29;45476;-84
2021/11/07 03:42:57;;;;;;;;;10.67;9.33;;;;;;;;4873087;29;45450;-83
2021/11/07 03:45:43;;;;;;;;;10.00;9.00;;;;;;;;4874305;29;45873;-83
2021/11/07 03:51:04;;;;;;;;;10.00;9.00;;;;;;;;4835348;29;45899;-83
2021/11/07 03:53:32;;;;;;;;;16.33;12.00;;;;;;;;4834733;29;46880;-83
2021/11/07 03:56:05;;;;;;;;;9.67;9.33;;;;;;;;4835289;29;45955;-83
2021/11/07 03:58:33;;;;;;;;;14.00;13.67;;;;;;;;4835705;29;45466;-82
2021/11/07 04:00:59;;;;;;;;;14.00;11.33;;;;;;;;4835679;29;45427;-83
2021/11/07 04:03:32;;;;;;;;;10.67;10.67;;;;;;;;4835842;29;46649;-82
2021/11/07 04:06:20;;;;;;;;;10.00;9.00;;;;;;;;4836644;29;45287;-83
2021/11/07 04:08:46;;;;;;;;;10.00;10.00;;;;;;;;4826797;29;45474;-82
2021/11/07 04:11:14;;;;;;;;;10.00;10.00;;;;;;;;4834751;29;45509;-83
2021/11/07 04:13:50;;;;;;;;;10.67;10.67;;;;;;;;4834514;29;46519;-83
2021/11/07 04:16:17;;;;;;;;;8.00;8.00;;;;;;;;4834466;29;45678;-84
2021/11/07 04:18:51;;;;;;;;;9.67;9.33;;;;;;;;4818369;29;44822;-83
2021/11/07 04:21:17;;;;;;;;;9.33;9.33;;;;;;;;4820190;29;45449;-83
2021/11/07 04:23:42;;;;;;;;;8.33;8.00;;;;;;;;4834859;29;45766;-83
2021/11/07 04:26:08;;;;;;;;;11.00;11.00;;;;;;;;4833931;29;45532;-82
2021/11/07 04:28:33;;;;;;;;;10.67;10.00;;;;;;;;4877159;29;45437;-83
2021/11/07 04:30:59;;;;;;;;;8.67;8.67;;;;;;;;4874986;29;45501;-83
2021/11/07 04:33:25;;;;;;;;;6.00;6.00;;;;;;;;4890820;29;46837;-83
2021/11/07 04:35:56;;;;;;;;;10.33;10.33;;;;;;;;4898728;29;45517;-83
2021/11/07 04:38:34;;;;;;;;;10.00;10.00;;;;;;;;4894926;28;45718;-83
2021/11/07 04:40:59;;;;;;;;;12.00;10.67;;;;;;;;4894554;28;45553;-82
2021/11/07 04:43:24;;;;;;;;;10.00;8.33;;;;;;;;4894560;28;46327;-83
2021/11/07 04:45:53;;;;;;;;;10.67;9.33;;;;;;;;4909727;28;45572;-83
2021/11/07 04:48:25;;;;;;;;;10.00;10.00;;;;;;;;4916342;28;44756;-83
2021/11/07 04:51:05;;;;;;;;;8.33;8.00;;;;;;;;4928452;28;45542;-83
2021/11/07 04:53:32;;;;;;;;;7.67;7.67;;;;;;;;4929801;28;47032;-83
2021/11/07 04:55:57;;;;;;;;;10.67;9.00;;;;;;;;4922499;28;44880;-83
2021/11/07 04:58:23;;;;;;;;;9.67;9.33;;;;;;;;4928779;28;45511;-83
2021/11/07 05:00:54;;;;;;;;;9.33;9.33;;;;;;;;4929827;28;45411;-83
2021/11/07 05:03:19;;;;;;;;;13.00;11.00;;;;;;;;4929979;28;45435;-83
2021/11/07 05:05:45;;;;;;;;;9.00;8.33;;;;;;;;4928662;28;45907;-83
2021/11/07 05:08:13;;;;;;;;;9.00;7.33;;;;;;;;4923739;28;45850;-83
2021/11/07 05:10:39;;;;;;;;;10.33;9.00;;;;;;;;4930009;28;45464;-83
2021/11/07 05:13:30;;;;;;;;;9.00;8.00;;;;;;;;4923716;28;47082;-83
2021/11/07 05:15:56;;;;;;;;;8.33;7.33;;;;;;;;4929677;28;45507;-83
2021/11/07 05:18:23;;;;;;;;;11.00;11.00;;;;;;;;4929931;28;45515;-83
2021/11/07 05:20:49;;;;;;;;;11.67;11.67;;;;;;;;4929084;28;45451;-83
2021/11/07 05:23:14;;;;;;;;;7.33;7.00;;;;;;;;4927802;28;47109;-83
2021/11/07 05:25:39;;;;;;;;;5.33;5.33;;;;;;;;4927935;28;45443;-83
2021/11/07 05:28:05;;;;;;;;;10.00;10.00;;;;;;;;4929234;28;45431;-83
2021/11/07 05:30:35;;;;;;;;;9.67;8.33;;;;;;;;4929552;28;44966;-83
2021/11/07 05:33:04;;;;;;;;;7.67;7.67;;;;;;;;4928825;28;45750;-83
2021/11/07 05:35:35;;;;;;;;;10.00;10.00;;;;;;;;4923462;28;45772;-83
2021/11/07 05:38:00;;;;;;;;;8.00;8.00;;;;;;;;4926815;28;45470;-83
2021/11/07 05:40:26;;;;;;;;;7.00;7.00;;;;;;;;4914178;28;45407;-83
2021/11/07 05:42:51;;;;;;;;;13.00;10.67;;;;;;;;4927977;28;47026;-83
2021/11/07 05:45:17;;;;;;;;;9.67;9.67;;;;;;;;4913456;28;45546;-83
2021/11/07 05:48:29;;;;;;;;;9.00;8.33;;;;;;;;4926627;28;44895;-83
2021/11/07 05:50:58;;;;;;;;;11.00;10.00;;;;;;;;4928286;28;45334;-83
2021/11/07 05:53:28;;;;;;;;;12.00;11.00;;;;;;;;4912139;28;46890;-83
2021/11/07 05:55:56;;;;;;;;;8.00;8.00;;;;;;;;4912486;28;45322;-83
2021/11/07 05:58:22;;;;;;;;;11.00;10.00;;;;;;;;4912613;28;45503;-84
2021/11/07 06:00:48;;;;;;;;;11.00;11.00;;;;;;;;4928778;28;45503;-83
2021/11/07 06:03:14;;;;;;;;;9.33;9.33;;;;;;;;4911609;28;47103;-83
2021/11/07 06:05:42;;;;;;;;;10.00;8.33;;;;;;;;4911552;28;45372;-83
2021/11/07 06:08:10;;;;;;;;;8.33;8.33;;;;;;;;4926437;28;45738;-83
2021/11/07 06:10:35;;;;;;;;;11.00;11.00;;;;;;;;4926748;28;45348;-83
2021/11/07 06:13:10;;;;;;;;;9.67;9.00;;;;;;;;4925972;28;45478;-83
2021/11/07 06:15:36;;;;;;;;;9.33;9.33;;;;;;;;4911007;28;45339;-83
2021/11/07 06:18:01;;;;;;;;;11.00;11.00;;;;;;;;4911324;28;45435;-83
2021/11/07 06:20:29;;;;;;;;;12.00;12.00;;;;;;;;4911507;28;45567;-83
2021/11/07 06:22:58;;;;;;;;;12.67;12.67;;;;;;;;4910745;28;45544;-83
2021/11/07 06:25:27;;;;;;;;;9.67;8.67;;;;;;;;4911385;28;45507;-82
2021/11/07 06:27:53;;;;;;;;;10.67;10.00;;;;;;;;4912140;28;44842;-82
2021/11/07 06:30:30;;;;;;;;;12.67;10.33;;;;;;;;4929572;28;45464;-83
2021/11/07 06:32:56;;;;;;;;;8.67;8.67;;;;;;;;4912106;28;47910;-83
2021/11/07 06:35:41;;;;;;;;;9.00;9.00;;;;;;;;4910744;28;45411;-83
2021/11/07 06:38:07;;;;;;;;;9.33;9.33;;;;;;;;4914879;28;45406;-83
2021/11/07 06:40:35;;;;;;;;;8.00;8.00;;;;;;;;4905024;29;45460;-83
2021/11/07 06:43:01;;;;;;;;;10.00;9.00;;;;;;;;4894019;29;47288;-82
2021/11/07 06:45:27;;;;;;;;;9.33;9.33;;;;;;;;4893600;28;45737;-82
2021/11/07 06:47:52;;;;;;;;;11.00;10.00;;;;;;;;4896006;29;45506;-82
2021/11/07 06:50:17;;;;;;;;;13.33;11.00;;;;;;;;4894009;29;45411;-82
2021/11/07 06:52:44;;;;;;;;;10.00;10.00;;;;;;;;4910738;28;45415;-83
2021/11/07 06:55:12;;;;;;;;;10.33;8.67;;;;;;;;4910740;28;45763;-83
2021/11/07 06:57:38;;;;;;;;;8.00;8.00;;;;;;;;4896610;29;44818;-83
2021/11/07 07:00:05;;;;;;;;;14.00;12.00;;;;;;;;4912673;28;45379;-83
2021/11/07 07:02:35;;;;;;;;;11.00;10.00;;;;;;;;4913127;28;46272;-83
2021/11/07 07:05:23;;;;;;;;;11.33;11.33;;;;;;;;4895853;28;45615;-83
2021/11/07 07:07:52;;;;;;;;;11.00;10.67;;;;;;;;4913003;29;45425;-83
2021/11/07 07:10:36;;;;;;;;;12.33;11.67;;;;;;;;4896590;29;45841;-83
2021/11/07 07:13:16;;;;;;;;;10.00;9.00;;;;;;;;4895931;29;47446;-83
2021/11/07 07:15:46;;;;;;;;;11.33;11.33;;;;;;;;4912555;28;45447;-83
2021/11/07 07:27:01;;;;;;;;;11.67;11.67;;;;;;;;4822472;29;44804;-83
2021/11/07 07:29:50;;;;;;;;;10.33;9.67;;;;;;;;4840492;29;45443;-83
2021/11/07 07:32:43;;;;;;;;;8.00;7.33;;;;;;;;4854391;29;45473;-83
2021/11/07 07:35:10;;;;;;;;;9.00;9.00;;;;;;;;4852897;29;45464;-84
2021/11/07 07:37:38;;;;;;;;;10.00;10.00;;;;;;;;4855536;29;45435;-83
2021/11/07 07:40:04;;;;;;;;;8.33;8.33;;;;;;;;4873386;29;45468;-83
2021/11/07 07:42:31;;;;;;;;;9.67;8.00;;;;;;;;4872296;29;45958;-83
2021/11/07 07:44:57;;;;;;;;;7.67;7.67;;;;;;;;4872132;29;45534;-83
2021/11/07 07:47:22;;;;;;;;;8.33;8.33;;;;;;;;4872066;29;45483;-83
2021/11/07 07:49:51;;;;;;;;;10.67;9.00;;;;;;;;4872216;29;45726;-83
2021/11/07 07:52:25;;;;;;;;;9.00;9.00;;;;;;;;4871905;29;45678;-83
2021/11/07 07:54:51;;;;;;;;;11.33;11.00;;;;;;;;4873904;29;46939;-83
2021/11/07 07:57:16;;;;;;;;;11.33;9.33;;;;;;;;4881196;28;45421;-83
2021/11/07 07:59:41;;;;;;;;;9.00;8.00;;;;;;;;4914496;28;45420;-83
2021/11/07 08:02:07;;;;;;;;;10.00;8.33;;;;;;;;4914816;28;45423;-83
2021/11/07 08:04:32;;;;;;;;;8.00;8.00;;;;;;;;4914929;28;46761;-82
2021/11/07 08:06:57;;;;;;;;;8.00;8.00;;;;;;;;4915239;28;45873;-82
2021/11/07 08:09:23;;;;;;;;;9.00;9.00;;;;;;;;4915583;28;45374;-82
2021/11/07 08:11:48;;;;;;;;;10.33;9.67;;;;;;;;4931356;28;45469;-82
2021/11/07 08:14:14;;;;;;;;;8.00;8.00;;;;;;;;4912839;28;47148;-82
2021/11/07 08:16:49;;;;;;;;;6.67;6.67;;;;;;;;4913544;28;45751;-82
2021/11/07 08:19:17;;;;;;;;;8.33;8.33;;;;;;;;4912815;28;45490;-83
2021/11/07 08:21:43;;;;;;;;;9.33;9.00;;;;;;;;4914029;28;45403;-83
2021/11/07 08:24:11;;;;;;;;;8.00;8.00;;;;;;;;4913943;28;48360;-84
2021/11/07 08:26:43;;;;;;;;;8.67;8.67;;;;;;;;4913739;28;45494;-82
2021/11/07 08:29:10;;;;;;;;;8.67;8.67;;;;;;;;4914701;28;45244;-82
2021/11/07 08:31:37;;;;;;;;;10.67;9.67;;;;;;;;4930865;28;44741;-82
2021/11/07 08:34:19;;;;;;;;;10.00;5.33;;;;;;;;4930955;28;46117;-82
2021/11/07 08:39:35;;;;;;;;;8.00;8.00;;;;;;;;4913604;28;45454;-83
2021/11/07 08:42:11;;;;;;;;;9.33;7.00;;;;;;;;4896031;29;44927;-83
2021/11/07 09:02:27;;;;;;;;;4.33;4.33;;;;;;;;4909606;28;45463;-84
2021/11/07 09:05:04;;;;;;;;;5.67;5.67;;;;;;;;4894461;29;45756;-83
2021/11/07 09:10:17;;;;;;;;;3.00;3.00;;;;;;;;4910550;28;44754;-83
2021/11/07 09:12:42;;;;;;;;;4.00;4.00;;;;;;;;4911883;28;45722;-82
2021/11/07 09:15:12;;;;;;;;;2.00;2.00;;;;;;;;4912084;28;45403;-83
2021/11/07 09:17:43;;;;;;;;;4.00;4.00;;;;;;;;4895037;29;46911;-83
2021/11/07 09:20:16;;;;;;;;;4.67;4.67;;;;;;;;4893813;29;45539;-83
2021/11/07 09:25:40;;;;;;;;;3.33;3.33;;;;;;;;4907659;28;44807;-83
2021/11/07 09:28:10;;;;;;;;;6.00;4.33;;;;;;;;4894461;29;45769;-84
2021/11/07 09:38:26;;;;;;;;;9.33;5.00;;;;;;;;4930330;28;45457;-83
2021/11/07 09:52:09;;;;;;;;;4.67;4.67;;;;;;;;4777726;29;45452;-83
2021/11/07 09:54:37;;;;;;;;;6.33;6.33;;;;;;;;4778469;29;45631;-82
2021/11/07 09:57:03;;;;;;;;;5.67;5.67;;;;;;;;4778169;29;44894;-83
2021/11/07 09:59:29;;;;;;;;;4.00;4.00;;;;;;;;4779038;29;46762;-83
2021/11/07 10:02:00;;;;;;;;;4.67;4.67;;;;;;;;4779168;29;45381;-83
2021/11/07 10:04:38;;;;;;;;;5.00;5.00;;;;;;;;4778127;29;44869;-83
2021/11/07 10:07:23;;;;;;;;;6.67;5.67;;;;;;;;4778097;29;45403;-83
2021/11/07 10:09:54;;;;;;;;;5.00;5.00;;;;;;;;4840976;29;47090;-83
2021/11/07 10:12:30;;;;;;;;;3.33;3.33;;;;;;;;4838845;29;45309;-83
2021/11/07 10:15:09;;;;;;;;;5.33;5.33;;;;;;;;4840071;29;46134;-83
2021/11/07 10:18:13;;;;;;;;;6.00;6.00;;;;;;;;4839781;29;45437;-83
2021/11/07 10:20:54;;;;;;;;;5.67;5.67;;;;;;;;4852778;29;45550;-83
2021/11/07 10:23:25;;;;;;;;;6.67;5.00;;;;;;;;4855173;29;45574;-83
2021/11/07 10:25:57;;;;;;;;;5.33;5.00;;;;;;;;4838974;29;45476;-84
2021/11/07 10:28:39;;;;;;;;;5.00;4.00;;;;;;;;4864948;28;45576;-83
2021/11/07 10:53:57;;;;;;;;;4.00;4.00;;;;;;;;4932924;28;44970;-83
2021/11/07 10:57:19;;;;;;;;;7.67;5.33;;;;;;;;4915114;28;45415;-84
2021/11/07 11:02:54;;;;;;;;;5.67;5.67;;;;;;;;4855404;29;45872;-84
2021/11/07 11:08:52;;;;;;;;;4.67;4.67;;;;;;;;4783148;29;44907;-83
2021/11/07 11:11:38;;;;;;;;;5.33;4.00;;;;;;;;4768668;29;44811;-83
2021/11/07 11:31:01;;;;;;;;;4.33;4.33;;;;;;;;4836890;29;45795;-84
2021/11/07 11:38:54;;;;;;;;;5.00;5.00;;;;;;;;4930353;28;45616;-84
2021/11/07 11:43:53;;;;;;;;;5.00;4.00;;;;;;;;4931489;28;44851;-84
2021/11/07 11:46:28;;;;;;;;;4.67;4.67;;;;;;;;4926127;28;45518;-84
2021/11/07 12:02:28;;;;;;;;;4.00;4.00;;;;;;;;4851870;29;45800;-84
2021/11/07 12:08:18;;;;;;;;;3.00;3.00;;;;;;;;4853863;29;45437;-84
2021/11/07 12:16:54;;;;;;;;;3.33;3.33;;;;;;;;4854037;29;45786;-84
2021/11/07 12:19:31;;;;;;;;;5.67;4.67;;;;;;;;4838196;29;45482;-84
2021/11/07 12:22:02;;;;;;;;;6.00;6.00;;;;;;;;4837813;29;46444;-84
2021/11/07 12:24:30;;;;;;;;;4.00;2.33;;;;;;;;4837079;29;45287;-84
2021/11/07 12:30:33;;;;;;;;;4.00;4.00;;;;;;;;4931618;28;45410;-84
2021/11/07 12:33:03;;;;;;;;;3.67;3.67;;;;;;;;4915146;28;46898;-84
2021/11/07 12:35:53;;;;;;;;;8.00;7.00;;;;;;;;4930740;28;45098;-84
2021/11/07 12:44:34;;;;;;;;;7.00;4.00;;;;;;;;4930984;28;45517;-84
2021/11/07 12:50:24;;;;;;;;;6.33;4.67;;;;;;;;4851531;29;45476;-84
2021/11/07 12:52:52;;;;;;;;;3.67;3.67;;;;;;;;4837025;29;45436;-84
2021/11/07 12:55:24;;;;;;;;;2.67;2.33;;;;;;;;4838489;29;46608;-84
2021/11/07 12:58:18;;;;;;;;;3.00;3.00;;;;;;;;4839119;29;45495;-84
2021/11/07 13:00:44;;;;;;;;;6.00;2.33;;;;;;;;4836143;29;45518;-84
2021/11/07 13:03:11;;;;;;;;;6.00;4.67;;;;;;;;4837531;29;45526;-84
2021/11/07 13:05:43;;;;;;;;;2.00;2.00;;;;;;;;4840002;29;45492;-83
2021/11/07 13:08:19;;;;;;;;;4.67;4.67;;;;;;;;4839637;29;45508;-83
2021/11/07 13:13:39;;;;;;;;;2.33;2.00;;;;;;;;4854578;28;45435;-84
2021/11/07 13:25:43;;;;;;;;;4.00;3.00;;;;;;;;4816156;29;44964;-84
2021/11/07 13:28:32;;;;;;;;;3.67;3.67;;;;;;;;4864766;29;45360;-84
2021/11/07 13:31:19;;;;;;;;;4.00;4.00;;;;;;;;4870549;29;45581;-83
2021/11/07 13:33:44;;;;;;;;;3.00;2.33;;;;;;;;4856911;29;44761;-84
2021/11/07 13:36:18;;;;;;;;;3.67;2.00;;;;;;;;4870939;29;45483;-84
2021/11/07 13:38:48;;;;;;;;;2.00;2.00;;;;;;;;4870188;29;47668;-84
2021/11/07 13:41:16;;;;;;;;;8.67;4.00;;;;;;;;4871589;29;45410;-84
2021/11/07 13:44:07;;;;;;;;;8.00;6.00;;;;;;;;4871392;29;45306;-84
2021/11/07 13:46:35;;;;;;;;;3.67;3.67;;;;;;;;4851967;29;45715;-84
2021/11/07 13:49:02;;;;;;;;;4.00;4.00;;;;;;;;4855140;29;45584;-84
2021/11/07 13:51:33;;;;;;;;;4.00;4.00;;;;;;;;4855683;29;45907;-84
2021/11/07 13:54:04;;;;;;;;;3.33;3.33;;;;;;;;4853559;29;45649;-84
2021/11/07 13:56:31;;;;;;;;;5.00;3.00;;;;;;;;4855126;28;45636;-84
2021/11/07 13:59:19;;;;;;;;;7.00;4.00;;;;;;;;4929833;28;45446;-84
2021/11/07 14:01:44;;;;;;;;;4.33;3.00;;;;;;;;4927760;28;45359;-84
2021/11/07 14:06:55;;;;;;;;;5.33;5.00;;;;;;;;4928080;28;45411;-84
2021/11/07 14:09:57;;;;;;;;;3.00;2.33;;;;;;;;4929558;28;47087;-84
2021/11/07 14:12:37;;;;;;;;;4.00;2.67;;;;;;;;4925461;28;44716;-83
2021/11/07 14:15:30;;;;;;;;;3.33;3.33;;;;;;;;4928698;28;45926;-84
2021/11/07 14:18:20;;;;;;;;;4.67;2.33;;;;;;;;4890674;28;45599;-84
2021/11/07 14:21:12;;;;;;;;;4.33;4.00;;;;;;;;4874053;29;46481;-84
2021/11/07 14:23:52;;;;;;;;;8.67;4.67;;;;;;;;4817109;29;44934;-84
2021/11/07 14:26:25;;;;;;;;;3.00;2.00;;;;;;;;4817567;29;45406;-83
2021/11/07 14:35:22;;;;;;;;;2.00;2.00;;;;;;;;4834434;29;45378;-84
2021/11/07 14:43:45;;;;;;;;;3.33;3.33;;;;;;;;4817908;29;45450;-84
2021/11/07 14:47:10;;;;;;;;;3.67;2.33;;;;;;;;4815709;29;45472;-84
2021/11/07 14:50:07;;;;;;;;;5.00;3.00;;;;;;;;4826059;29;45383;-84
2021/11/07 14:55:14;;;;;;;;;2.33;2.33;;;;;;;;4832336;29;45483;-83
2021/11/07 14:58:05;;;;;;;;;3.33;3.33;;;;;;;;4819544;29;45519;-83
2021/11/07 15:00:48;;;;;;;;;3.67;3.00;;;;;;;;4864776;29;45458;-83
2021/11/07 15:03:45;;;;;;;;;3.33;3.00;;;;;;;;4875353;29;45351;-84
2021/11/07 15:09:13;;;;;;;;;2.33;2.00;;;;;;;;4890547;29;45496;-83
2021/11/07 15:12:01;;;;;;;;;4.00;4.00;;;;;;;;4875703;29;45442;-84
2021/11/07 15:14:34;;;;;;;;;3.00;2.00;;;;;;;;4904949;28;44896;-84
2021/11/07 15:17:15;;;;;;;;;5.67;5.67;;;;;;;;4923880;28;47329;-83
2021/11/07 15:20:08;;;;;;;;;5.33;3.33;;;;;;;;4922347;28;45835;-83
2021/11/07 15:22:43;;;;;;;;;1.00;1.00;;;;;;;;4915824;28;45513;-83
2021/11/07 15:25:08;;;;;;;;;2.00;2.00;;;;;;;;4916020;28;45444;-83
2021/11/07 15:27:36;;;;;;;;;3.67;2.00;;;;;;;;4917135;28;45548;-84
2021/11/07 15:30:16;;;;;;;;;3.00;3.00;;;;;;;;4916305;28;45419;-84
2021/11/07 15:32:45;;;;;;;;;5.00;5.00;;;;;;;;4916151;28;45400;-84
2021/11/07 15:35:16;;;;;;;;;5.00;3.67;;;;;;;;4915000;28;45390;-84
2021/11/07 15:37:42;;;;;;;;;2.00;2.00;;;;;;;;4915106;28;46796;-84
2021/11/07 15:40:14;;;;;;;;;7.00;3.67;;;;;;;;4915042;28;45619;-84
2021/11/07 15:42:45;;;;;;;;;2.33;2.33;;;;;;;;4915215;28;45391;-83
2021/11/07 15:45:24;;;;;;;;;3.00;3.00;;;;;;;;4915756;28;44898;-84
2021/11/07 15:47:59;;;;;;;;;9.00;4.67;;;;;;;;4915921;28;47490;-84
2021/11/07 16:03:14;;;;;;;;;2.33;2.33;;;;;;;;4933185;28;44850;-84
2021/11/07 16:10:53;;;;;;;;;3.00;3.00;;;;;;;;4931316;28;44792;-83
2021/11/07 16:16:02;;;;;;;;;7.33;5.00;;;;;;;;4932995;28;44754;-84
2021/11/07 16:18:29;;;;;;;;;6.33;4.33;;;;;;;;4914712;28;46791;-83
2021/11/07 16:20:54;;;;;;;;;3.67;3.00;;;;;;;;4916066;28;44749;-83
2021/11/07 16:26:21;;;;;;;;;4.67;4.00;;;;;;;;4870818;29;45501;-83
2021/11/07 16:28:47;;;;;;;;;5.67;5.67;;;;;;;;4858145;29;47928;-84
2021/11/07 16:31:20;;;;;;;;;3.00;3.00;;;;;;;;4859475;29;46385;-83
2021/11/07 16:36:38;;;;;;;;;5.00;4.00;;;;;;;;4940797;28;46493;-83
2021/11/07 16:39:19;;;;;;;;;5.33;5.00;;;;;;;;4933906;28;45341;-83
2021/11/07 16:41:50;;;;;;;;;7.00;5.33;;;;;;;;4933850;28;45871;-83
2021/11/07 16:44:20;;;;;;;;;10.00;5.00;;;;;;;;4933967;28;45481;-83
2021/11/07 16:49:55;;;;;;;;;9.67;8.67;;;;;;;;4951184;28;45036;-83
2021/11/07 16:52:30;;;;;;;;;8.00;6.67;;;;;;;;4932830;28;45554;-83
2021/11/07 16:55:02;;;;;;;;;11.00;8.67;;;;;;;;4933639;28;45463;-84
2021/11/07 16:57:31;;;;;;;;;9.00;7.00;;;;;;;;4933339;28;45520;-84
2021/11/07 17:00:15;;;;;;;;;11.67;11.00;;;;;;;;4933904;28;46804;-83
2021/11/07 17:03:06;;;;;;;;;12.33;10.67;;;;;;;;4949960;28;45198;-83
2021/11/07 17:05:41;;;;;;;;;9.00;8.33;;;;;;;;4932128;28;45375;-83
2021/11/07 17:08:16;;;;;;;;;10.00;8.67;;;;;;;;4932033;28;45191;-84
2021/11/07 17:10:50;;;;;;;;;9.33;9.00;;;;;;;;4932986;28;46748;-83
2021/11/07 17:13:16;;;;;;;;;6.00;6.00;;;;;;;;4932428;28;45510;-83
2021/11/07 17:15:51;;;;;;;;;12.67;11.00;;;;;;;;4933940;28;45428;-83
2021/11/07 17:18:24;;;;;;;;;16.00;13.67;;;;;;;;4933336;28;45432;-84
2021/11/07 17:26:21;;;;;;;;;13.00;9.67;;;;;;;;4872010;29;45502;-83
2021/11/07 17:39:22;;;;;;;;;14.00;14.00;;;;;;;;4892436;29;44777;-83
2021/11/07 17:55:28;;;;;;;;;12.67;12.00;;;;;;;;4888987;29;45485;-83
2021/11/07 17:57:57;;;;;;;;;11.33;11.33;;;;;;;;4892372;29;45353;-83
2021/11/07 18:00:25;;;;;;;;;18.00;13.33;;;;;;;;4895379;28;45396;-83
2021/11/07 18:03:04;;;;;;;;;13.00;11.67;;;;;;;;4930074;28;48146;-83
2021/11/07 18:05:59;;;;;;;;;12.00;11.33;;;;;;;;4929099;28;45426;-83
2021/11/07 18:08:31;;;;;;;;;17.67;17.67;;;;;;;;4872519;29;45350;-83
2021/11/07 18:11:02;;;;;;;;;14.67;10.33;;;;;;;;4873398;29;45383;-83
2021/11/07 18:13:36;;;;;;;;;19.33;17.67;;;;;;;;4873832;29;46624;-83
2021/11/07 18:19:04;;;;;;;;;9.00;9.00;;;;;;;;4891755;29;45730;-84
2021/11/07 18:24:29;;;;;;;;;15.33;11.67;;;;;;;;4888066;29;45470;-84
2021/11/07 18:26:56;;;;;;;;;11.00;11.00;;;;;;;;4873513;29;45451;-84
2021/11/07 18:29:22;;;;;;;;;11.33;10.00;;;;;;;;4872630;29;45540;-83
2021/11/07 18:31:50;;;;;;;;;13.33;11.67;;;;;;;;4872013;29;45010;-83
2021/11/07 18:34:33;;;;;;;;;12.33;12.00;;;;;;;;4889530;29;45491;-84
2021/11/07 18:37:01;;;;;;;;;13.67;11.33;;;;;;;;4905844;29;45362;-83
2021/11/07 18:39:29;;;;;;;;;13.33;11.67;;;;;;;;4926986;28;44825;-84
2021/11/07 18:41:55;;;;;;;;;16.67;13.33;;;;;;;;4931325;28;45419;-84
2021/11/07 18:44:24;;;;;;;;;12.67;11.00;;;;;;;;4929911;28;45597;-83
2021/11/07 18:46:49;;;;;;;;;11.00;10.67;;;;;;;;4931173;28;45369;-84
2021/11/07 18:49:17;;;;;;;;;14.67;12.00;;;;;;;;4915210;28;45456;-83
2021/11/07 18:52:48;;;;;;;;;17.33;14.67;;;;;;;;4910826;28;45368;-83
2021/11/07 18:55:33;;;;;;;;;22.67;20.33;;;;;;;;4901769;28;45419;-83
2021/11/07 18:57:59;;;;;;;;;21.00;18.00;;;;;;;;4814440;29;45588;-83
2021/11/07 19:00:31;;;;;;;;;21.00;20.67;;;;;;;;4802374;29;45444;-83
2021/11/07 19:02:57;;;;;;;;;24.00;19.00;;;;;;;;4803238;29;45760;-83
2021/11/07 19:05:43;;;;;;;;;20.33;15.33;;;;;;;;4802394;29;48550;-83
2021/11/07 19:08:09;;;;;;;;;24.33;21.33;;;;;;;;4802425;29;45478;-83
2021/11/07 19:10:39;;;;;;;;;23.00;20.33;;;;;;;;4801248;29;45443;-83
2021/11/07 19:13:10;;;;;;;;;25.67;22.00;;;;;;;;4801143;29;45462;-83
2021/11/07 19:15:37;;;;;;;;;28.67;28.00;;;;;;;;4800886;29;45422;-83
2021/11/07 19:18:03;;;;;;;;;29.00;25.67;;;;;;;;4799997;29;45491;-83
2021/11/07 19:20:30;;;;;;;;;33.00;29.67;;;;;;;;4800871;29;45401;-83
2021/11/07 19:23:15;;;;;;;;;26.33;26.33;;;;;;;;4802414;29;45551;-83
2021/11/07 19:25:42;;;;;;;;;28.00;24.67;;;;;;;;4799981;29;47019;-83
2021/11/07 19:28:08;;;;;;;;;28.67;27.67;;;;;;;;4807351;29;45527;-83
2021/11/07 19:30:34;;;;;;;;;30.67;26.67;;;;;;;;4856542;29;45422;-83
2021/11/07 19:33:02;;;;;;;;;35.00;32.00;;;;;;;;4864692;28;45451;-83
2021/11/07 19:35:31;;;;;;;;;38.00;31.33;;;;;;;;4937568;28;46143;-83
2021/11/07 19:37:56;;;;;;;;;34.67;28.67;;;;;;;;4952973;28;44828;-83
2021/11/07 19:40:26;;;;;;;;;30.00;28.33;;;;;;;;4952677;28;45446;-83
2021/11/07 19:42:55;;;;;;;;;32.33;31.33;;;;;;;;4954177;28;45602;-83
2021/11/07 19:45:21;;;;;;;;;27.00;27.00;;;;;;;;4970061;28;45373;-82
2021/11/07 19:47:49;;;;;;;;;30.00;29.33;;;;;;;;4953339;28;44761;-83
2021/11/07 19:50:24;;;;;;;;;32.00;27.00;;;;;;;;4953337;28;44857;-83
2021/11/07 19:52:53;;;;;;;;;36.67;34.33;;;;;;;;4952569;28;44948;-83
2021/11/07 19:55:20;;;;;;;;;37.00;34.33;;;;;;;;4951056;28;46990;-84